This is the latest recevied weather packets stored in our database for station/object OE-11331. If no packets are shown the sender has not sent any weather packets the latest 10 day(s).
| Time | Temp. | Humidity | Pressure | Rain* | Wind** | Luminosity | Snow |
|---|---|---|---|---|---|---|---|
| 1787669732 | 20.56° C | 74% | 1012.2 hPa | 0 mm | - | 216 W/m² | - |
| 1787668905 | 20.56° C | 76% | 1012.3 hPa | 0 mm | - | 216 W/m² | - |
| 1787668532 | 20.56° C | 76% | 1012.4 hPa | 0 mm | - | 260 W/m² | - |
| 1787667931 | 20° C | 74% | 1012.4 hPa | 0 mm | - | 195 W/m² | - |
| 1787667104 | 20° C | 76% | 1012.4 hPa | 0 mm | - | 184 W/m² | - |
| 1787666732 | 20° C | 76% | 1012.2 hPa | 0 mm | - | 227 W/m² | - |
| 1787666132 | 20° C | 76% | 1012.2 hPa | 0 mm | - | 260 W/m² | - |
| 1787665305 | 19.44° C | 78% | 1012.2 hPa | 0 mm | - | 249 W/m² | - |
| 1787664932 | 19.44° C | 78% | 1012.2 hPa | 0 mm | - | 216 W/m² | - |
| 1787664332 | 19.44° C | 78% | 1012.1 hPa | 0 mm | - | 260 W/m² | - |
| 1787663505 | 19.44° C | 79% | 1012.2 hPa | 0 mm | - | 249 W/m² | - |
| 1787663132 | 19.44° C | 78% | 1012.4 hPa | 0 mm | - | 271 W/m² | - |
| 1787662531 | 19.44° C | 79% | 1012.4 hPa | 0 mm | - | 249 W/m² | - |
| 1787661703 | 19.44° C | 77% | 1012.3 hPa | 0 mm | - | 216 W/m² | - |
| 1787661331 | 19.44° C | 76% | 1012.5 hPa | 0 mm | - | 184 W/m² | - |
| 1787660731 | 19.44° C | 77% | 1012.7 hPa | 0 mm | - | 173 W/m² | - |
| 1787660143 | 19.44° C | 76% | 1012.7 hPa | 0 mm | - | 216 W/m² | - |
| 1787659530 | 19.44° C | 77% | 1012.8 hPa | 0 mm | - | 249 W/m² | - |
| 1787658931 | 19.44° C | 76% | 1012.8 hPa | 0 mm | - | 260 W/m² | - |
| 1787658104 | 19.44° C | 75% | 1012.8 hPa | 0 mm | - | 346 W/m² | - |
| 1787657730 | 19.44° C | 76% | 1012.7 hPa | 0 mm | - | 520 W/m² | - |
| 1787657130 | 20° C | 74% | 1012.7 hPa | 0 mm | - | 909 W/m² | - |
| 1787654504 | 18.33° C | 84% | 1013.1 hPa | 0 mm | - | 455 W/m² | - |
| 1787651730 | 16.67° C | 93% | 1014 hPa | 0.25 mm | - | 206 W/m² | - |
| 1787650904 | 16.11° C | 92% | 1014.1 hPa | 0.25 mm | - | 97 W/m² | - |
* Rain latest hour (hover to see other rain measurements)
** Current wind speed in m/s (hover to see current wind gust speed)